createdAt,value
2023-01-05T00:00:56.487Z,14.00
2023-01-05T00:03:24.964Z,21.23
2023-01-05T00:05:52.912Z,19.37
2023-01-05T00:08:21.953Z,16.10
2023-01-05T00:11:07.624Z,18.53
2023-01-05T00:13:55.847Z,20.17
2023-01-05T00:16:41.424Z,12.27
2023-01-05T00:19:28.356Z,13.40
2023-01-05T00:22:13.723Z,12.17
2023-01-05T00:24:48.051Z,12.53
2023-01-05T00:27:16.067Z,14.33
2023-01-05T00:29:43.924Z,11.67
2023-01-05T00:32:11.853Z,15.87
2023-01-05T00:34:39.714Z,16.13
2023-01-05T00:37:08.008Z,14.00
2023-01-05T00:39:35.747Z,15.30
2023-01-05T00:42:05.351Z,9.37
2023-01-05T00:44:33.061Z,16.20
2023-01-05T00:47:01.041Z,16.37
2023-01-05T00:49:28.870Z,27.30
2023-01-05T00:51:56.804Z,18.80
2023-01-05T00:54:24.416Z,13.03
2023-01-05T00:56:52.073Z,17.13
2023-01-05T00:59:21.134Z,12.50
2023-01-05T01:01:49.618Z,15.10
2023-01-05T01:04:17.906Z,13.17
2023-01-05T01:06:45.663Z,12.87
2023-01-05T01:09:13.765Z,8.23
2023-01-05T01:11:42.455Z,18.13
2023-01-05T01:14:11.999Z,12.47
2023-01-05T01:16:41.370Z,15.50
2023-01-05T01:19:09.264Z,18.67
2023-01-05T01:21:36.907Z,14.33
2023-01-05T01:24:04.607Z,17.47
2023-01-05T01:26:32.398Z,15.93
2023-01-05T01:29:00.066Z,13.47
2023-01-05T01:31:27.705Z,11.67
2023-01-05T01:33:56.887Z,16.03
2023-01-05T01:36:25.196Z,18.47
2023-01-05T01:38:55.240Z,14.47
2023-01-05T01:41:23.244Z,20.27
2023-01-05T01:43:51.933Z,15.37
2023-01-05T01:46:22.528Z,12.53
2023-01-05T01:48:52.314Z,11.67
2023-01-05T01:51:22.940Z,10.43
2023-01-05T01:53:52.344Z,11.43
2023-01-05T01:56:22.127Z,14.97
2023-01-05T01:58:50.037Z,12.43
2023-01-05T02:01:19.222Z,13.07
2023-01-05T02:03:49.601Z,18.23
2023-01-05T02:06:18.346Z,10.47
2023-01-05T02:08:47.928Z,12.17
2023-01-05T02:11:36.726Z,13.77
2023-01-05T02:14:16.552Z,9.90
2023-01-05T02:16:48.398Z,13.03
2023-01-05T02:19:38.447Z,11.50
2023-01-05T02:22:14.246Z,10.03
2023-01-05T02:24:52.374Z,10.60
2023-01-05T02:27:40.548Z,11.23
2023-01-05T02:30:16.415Z,13.13
2023-01-05T02:32:49.721Z,12.47
2023-01-05T02:35:21.246Z,11.60
2023-01-05T02:37:53.352Z,18.03
2023-01-05T02:40:23.320Z,11.77
2023-01-05T02:42:52.596Z,6.97
2023-01-05T02:45:23.031Z,11.80
2023-01-05T02:47:56.780Z,8.40
2023-01-05T02:50:29.485Z,10.37
2023-01-05T02:52:59.032Z,11.60
2023-01-05T02:55:29.753Z,9.00
2023-01-05T02:58:01.768Z,10.90
2023-01-05T03:00:34.024Z,11.50
2023-01-05T03:03:05.834Z,8.43
2023-01-05T03:05:35.223Z,10.23
2023-01-05T03:08:08.896Z,7.90
2023-01-05T03:11:04.427Z,20.53
2023-01-05T03:13:44.857Z,12.43
2023-01-05T03:16:19.841Z,12.10
2023-01-05T03:19:07.654Z,10.37
2023-01-05T03:21:54.146Z,10.23
2023-01-05T03:24:40.309Z,11.37
2023-01-05T03:27:26.841Z,9.23
2023-01-05T03:30:12.156Z,11.03
2023-01-05T03:33:00.763Z,13.60
2023-01-05T03:35:33.599Z,7.90
2023-01-05T03:38:12.272Z,10.63
2023-01-05T03:40:44.227Z,9.53
2023-01-05T03:43:12.856Z,9.13
2023-01-05T03:45:42.981Z,8.13
2023-01-05T03:48:16.431Z,8.27
2023-01-05T03:50:45.937Z,9.23
2023-01-05T03:53:15.779Z,7.93
2023-01-05T03:55:46.476Z,13.20
2023-01-05T03:58:14.854Z,9.40
2023-01-05T04:00:47.819Z,10.63
2023-01-05T04:03:18.415Z,7.73
2023-01-05T04:05:48.040Z,10.60
2023-01-05T04:08:16.808Z,8.00
2023-01-05T04:10:44.998Z,6.20
2023-01-05T04:13:14.782Z,9.97
2023-01-05T04:15:43.946Z,7.20
2023-01-05T04:18:12.604Z,6.20
2023-01-05T04:20:40.352Z,10.60
2023-01-05T04:23:10.312Z,8.03
2023-01-05T04:25:38.279Z,7.40
2023-01-05T04:28:20.670Z,7.33
2023-01-05T04:30:50.961Z,10.53
2023-01-05T04:33:18.719Z,9.30
2023-01-05T04:35:46.883Z,17.43
2023-01-05T04:38:16.226Z,7.63
2023-01-05T04:40:48.711Z,11.13
2023-01-05T04:43:16.562Z,6.53
2023-01-05T04:45:46.727Z,8.60
2023-01-05T04:48:14.868Z,8.63
2023-01-05T04:50:43.137Z,18.47
2023-01-05T04:53:11.119Z,10.23
2023-01-05T04:55:43.058Z,6.50
2023-01-05T04:58:12.135Z,9.50
2023-01-05T05:00:42.336Z,5.57
2023-01-05T05:03:10.824Z,8.30
2023-01-05T05:05:38.550Z,8.63
2023-01-05T05:08:06.884Z,6.20
2023-01-05T05:10:36.063Z,8.60
2023-01-05T05:13:05.279Z,6.83
2023-01-05T05:15:33.244Z,8.83
2023-01-05T05:18:08.976Z,11.30
2023-01-05T05:20:38.323Z,9.53
2023-01-05T05:23:06.134Z,6.80
2023-01-05T05:25:34.983Z,9.50
2023-01-05T05:28:03.735Z,11.47
2023-01-05T05:30:32.953Z,29.33
2023-01-05T05:33:00.594Z,12.63
2023-01-05T05:35:28.612Z,10.13
2023-01-05T05:37:56.781Z,12.60
2023-01-05T05:40:26.403Z,12.90
2023-01-05T05:42:54.268Z,12.97
2023-01-05T05:45:22.009Z,11.07
2023-01-05T05:47:50.997Z,7.03
2023-01-05T05:50:19.212Z,8.40
2023-01-05T05:52:47.998Z,13.17
2023-01-05T05:55:15.716Z,9.23
2023-01-05T05:57:43.362Z,11.60
2023-01-05T06:00:11.721Z,9.67
2023-01-05T06:02:42.476Z,10.70
2023-01-05T06:05:12.122Z,11.87
2023-01-05T06:07:40.102Z,11.13
2023-01-05T06:10:08.401Z,12.13
2023-01-05T06:12:36.491Z,11.20
2023-01-05T06:15:04.368Z,7.67
2023-01-05T06:17:32.143Z,9.03
2023-01-05T06:19:59.753Z,7.10
2023-01-05T06:22:29.090Z,4.27
2023-01-05T06:24:56.732Z,4.97
2023-01-05T06:27:24.322Z,3.13
2023-01-05T06:29:52.214Z,9.00
2023-01-05T06:32:20.453Z,4.87
2023-01-05T06:34:48.479Z,7.03
2023-01-05T06:37:16.475Z,8.10
2023-01-05T06:39:45.518Z,6.30
2023-01-05T06:42:13.227Z,8.80
2023-01-05T06:44:42.829Z,5.77
2023-01-05T06:47:10.687Z,5.50
2023-01-05T06:49:38.652Z,4.43
2023-01-05T06:52:10.793Z,4.20
2023-01-05T06:54:42.077Z,6.00
2023-01-05T06:57:11.441Z,4.47
2023-01-05T06:59:39.143Z,5.40
2023-01-05T07:02:07.506Z,4.87
2023-01-05T07:04:35.215Z,9.10
2023-01-05T07:07:02.847Z,6.10
2023-01-05T07:09:30.544Z,6.77
2023-01-05T07:11:58.179Z,4.10
2023-01-05T07:14:28.137Z,6.33
2023-01-05T07:16:55.885Z,3.67
2023-01-05T07:19:24.148Z,7.07
2023-01-05T07:21:56.572Z,6.57
2023-01-05T07:24:24.985Z,3.20
2023-01-05T07:26:52.621Z,5.23
2023-01-05T07:29:21.490Z,3.40
2023-01-05T07:31:52.482Z,3.93
2023-01-05T07:34:20.552Z,3.63
2023-01-05T07:36:48.291Z,4.90
2023-01-05T07:39:16.252Z,3.37
2023-01-05T07:41:43.893Z,5.70
2023-01-05T07:44:12.079Z,4.43
2023-01-05T07:46:39.892Z,4.70
2023-01-05T07:49:08.883Z,3.93
2023-01-05T07:51:37.262Z,8.50
2023-01-05T07:54:06.094Z,6.17
2023-01-05T07:56:33.889Z,6.10
2023-01-05T07:59:01.654Z,5.20
2023-01-05T08:01:29.674Z,4.13
2023-01-05T08:03:57.709Z,3.30
2023-01-05T08:06:26.720Z,6.97
2023-01-05T08:08:54.643Z,4.13
2023-01-05T08:11:23.005Z,4.03
2023-01-05T08:14:03.540Z,3.30
2023-01-05T08:16:32.197Z,4.47
2023-01-05T08:19:00.390Z,3.27
2023-01-05T08:21:29.871Z,3.13
2023-01-05T08:23:59.608Z,4.10
2023-01-05T08:26:28.497Z,3.03
2023-01-05T08:28:56.411Z,3.50
2023-01-05T08:31:28.380Z,3.47
2023-01-05T08:33:58.107Z,5.20
2023-01-05T08:36:25.858Z,3.80
2023-01-05T08:38:55.363Z,5.07
2023-01-05T08:41:24.485Z,5.30
2023-01-05T08:43:52.860Z,4.03
2023-01-05T08:46:20.863Z,5.90
2023-01-05T08:48:49.620Z,2.90
2023-01-05T08:51:17.360Z,7.30
2023-01-05T08:53:45.894Z,3.23
2023-01-05T08:56:15.117Z,4.73
2023-01-05T08:58:43.196Z,6.27
2023-01-05T09:01:11.354Z,3.80
2023-01-05T09:03:40.002Z,4.63
2023-01-05T09:06:09.349Z,7.50
2023-01-05T09:08:37.136Z,4.83
2023-01-05T09:11:08.194Z,4.93
2023-01-05T09:13:37.428Z,5.33
2023-01-05T09:16:06.183Z,3.70
2023-01-05T09:18:34.087Z,2.80
2023-01-05T09:21:01.777Z,9.10
2023-01-05T09:23:29.660Z,11.67
2023-01-05T09:25:57.319Z,5.30
2023-01-05T09:28:25.310Z,4.50
2023-01-05T09:30:54.455Z,4.57
2023-01-05T09:33:25.113Z,4.10
2023-01-05T09:35:56.104Z,4.40
2023-01-05T09:38:32.783Z,4.37
2023-01-05T09:41:23.739Z,4.07
2023-01-05T09:44:05.109Z,10.40
2023-01-05T09:46:38.333Z,2.60
2023-01-05T09:49:07.460Z,3.50
2023-01-05T09:51:36.260Z,4.20
2023-01-05T09:54:04.475Z,3.03
2023-01-05T09:57:07.962Z,4.23
2023-01-05T09:59:24.825Z,2.80
2023-01-05T10:01:55.193Z,5.00
2023-01-05T10:04:30.377Z,3.37
2023-01-05T10:07:01.081Z,6.00
2023-01-05T10:09:31.250Z,3.80
2023-01-05T10:12:19.415Z,5.80
2023-01-05T10:14:48.503Z,5.47
2023-01-05T10:20:14.957Z,5.13
2023-01-05T10:22:47.845Z,7.03
2023-01-05T10:25:21.824Z,5.20
2023-01-05T10:27:56.873Z,6.23
2023-01-05T10:30:27.312Z,5.93
2023-01-05T10:33:25.502Z,7.13
2023-01-05T10:36:01.580Z,7.73
2023-01-05T10:38:38.898Z,5.27
2023-01-05T10:41:11.316Z,7.70
2023-01-05T10:43:47.295Z,6.03
2023-01-05T10:46:32.559Z,5.33
2023-01-05T10:49:06.638Z,4.60
2023-01-05T10:51:34.893Z,6.93
2023-01-05T10:54:03.166Z,4.90
2023-01-05T10:56:32.624Z,4.30
2023-01-05T10:59:10.626Z,6.03
2023-01-05T11:01:39.291Z,7.83
2023-01-05T11:07:03.455Z,5.60
2023-01-05T11:09:31.588Z,6.40
2023-01-05T11:12:00.361Z,5.87
2023-01-05T11:14:29.276Z,8.70
2023-01-05T11:17:02.642Z,4.17
2023-01-05T11:19:33.483Z,5.07
2023-01-05T11:22:02.334Z,5.13
2023-01-05T11:24:32.051Z,4.37
2023-01-05T11:27:01.535Z,6.20
2023-01-05T11:29:29.383Z,8.53
2023-01-05T11:31:58.763Z,5.73
2023-01-05T11:34:34.281Z,7.80
2023-01-05T11:37:08.184Z,8.40
2023-01-05T11:39:38.771Z,6.50
2023-01-05T11:42:17.489Z,6.27
2023-01-05T11:47:43.883Z,7.63
2023-01-05T11:50:21.223Z,4.87
2023-01-05T11:52:50.819Z,6.10
2023-01-05T11:55:32.943Z,9.20
2023-01-05T11:58:27.990Z,8.07
2023-01-05T12:01:10.632Z,8.90
2023-01-05T12:03:55.489Z,11.20
2023-01-05T12:06:32.683Z,13.60
2023-01-05T12:09:06.235Z,10.93
2023-01-05T12:11:37.057Z,7.60
2023-01-05T12:14:21.210Z,7.70
2023-01-05T12:16:54.736Z,8.50
2023-01-05T12:19:32.622Z,11.37
2023-01-05T12:22:14.297Z,9.93
2023-01-05T12:24:49.582Z,6.87
2023-01-05T12:27:24.449Z,6.63
2023-01-05T12:34:01.515Z,10.07
2023-01-05T12:36:14.880Z,8.80
2023-01-05T12:38:48.549Z,5.23
2023-01-05T12:41:28.982Z,6.03
2023-01-05T12:44:03.392Z,9.07
2023-01-05T12:46:37.914Z,7.50
2023-01-05T12:49:08.371Z,5.83
2023-01-05T12:51:39.133Z,8.60
2023-01-05T12:54:11.264Z,11.10
2023-01-05T12:56:42.471Z,4.73
2023-01-05T12:59:16.213Z,4.97
2023-01-05T13:01:46.311Z,6.43
2023-01-05T13:04:19.492Z,5.87
2023-01-05T13:06:52.939Z,7.63
2023-01-05T13:09:23.389Z,6.00
2023-01-05T13:11:54.365Z,7.40
2023-01-05T13:14:24.768Z,10.00
2023-01-05T13:16:58.401Z,8.00
2023-01-05T13:19:29.585Z,6.23
2023-01-05T13:21:59.038Z,6.17
2023-01-05T13:24:32.351Z,7.70
2023-01-05T13:27:00.720Z,3.87
2023-01-05T13:29:31.714Z,7.57
2023-01-05T13:32:17.562Z,5.00
2023-01-05T13:34:52.901Z,5.50
2023-01-05T13:37:31.531Z,5.77
2023-01-05T13:40:06.712Z,7.60
2023-01-05T13:42:42.964Z,7.70
2023-01-05T13:45:31.383Z,6.97
2023-01-05T13:48:13.109Z,5.43
2023-01-05T13:50:58.829Z,4.60
2023-01-05T13:53:30.144Z,5.67
2023-01-05T13:56:01.072Z,3.73
2023-01-05T13:58:33.664Z,7.23
2023-01-05T14:01:02.616Z,7.17
2023-01-05T14:03:33.019Z,8.17
2023-01-05T14:06:01.835Z,14.03
2023-01-05T14:08:32.383Z,8.90
2023-01-05T14:11:16.572Z,11.53
2023-01-05T14:13:46.473Z,4.90
2023-01-05T14:16:36.230Z,5.73
2023-01-05T14:19:12.169Z,4.90
2023-01-05T14:22:00.696Z,10.00
2023-01-05T14:24:30.038Z,5.00
2023-01-05T14:27:07.533Z,4.93
2023-01-05T14:30:08.597Z,7.47
2023-01-05T14:32:37.552Z,5.17
2023-01-05T14:35:18.535Z,8.37
2023-01-05T14:37:52.629Z,4.97
2023-01-05T14:40:32.119Z,10.27
2023-01-05T14:43:02.579Z,8.07
2023-01-05T14:45:31.756Z,6.50
2023-01-05T14:48:00.398Z,5.90
2023-01-05T14:50:30.377Z,5.10
2023-01-05T14:52:59.979Z,5.67
2023-01-05T14:55:44.410Z,5.90
2023-01-05T14:58:15.124Z,8.80
2023-01-05T15:00:55.019Z,5.43
2023-01-05T15:03:26.933Z,8.73
2023-01-05T15:05:57.777Z,9.70
2023-01-05T15:08:34.231Z,5.10
2023-01-05T15:11:19.085Z,6.27
2023-01-05T15:14:19.433Z,6.60
2023-01-05T15:16:59.920Z,7.87
2023-01-05T15:19:41.133Z,4.83
2023-01-05T15:22:36.393Z,5.90
2023-01-05T15:25:18.014Z,5.50
2023-01-05T15:28:16.067Z,6.30
2023-01-05T15:30:58.918Z,5.60
2023-01-05T15:33:32.815Z,7.30
2023-01-05T15:36:02.541Z,5.10
2023-01-05T15:38:36.442Z,3.97
2023-01-05T15:41:07.329Z,4.93
2023-01-05T15:43:36.085Z,6.40
2023-01-05T15:46:03.949Z,6.07
2023-01-05T15:48:36.458Z,5.13
2023-01-05T15:51:05.753Z,5.90
2023-01-05T15:53:36.273Z,13.30
2023-01-05T15:56:04.675Z,7.37
2023-01-05T15:58:33.777Z,7.10
2023-01-05T16:01:03.450Z,5.33
2023-01-05T16:03:32.779Z,7.13
2023-01-05T16:06:03.662Z,5.60
2023-01-05T16:08:32.892Z,5.20
2023-01-05T16:11:01.811Z,4.70
2023-01-05T16:13:33.143Z,6.43
2023-01-05T16:16:02.794Z,6.33
2023-01-05T16:18:35.464Z,10.33
2023-01-05T16:21:07.795Z,7.47
2023-01-05T16:23:37.801Z,8.63
2023-01-05T16:26:05.886Z,11.37
2023-01-05T16:28:33.771Z,7.33
2023-01-05T16:31:01.917Z,6.47
2023-01-05T16:33:34.720Z,12.53
2023-01-05T16:36:13.703Z,10.00
2023-01-05T16:38:41.843Z,6.00
2023-01-05T16:41:30.184Z,8.70
2023-01-05T16:43:58.710Z,8.07
2023-01-05T16:46:37.438Z,6.10
2023-01-05T16:49:07.413Z,6.90
2023-01-05T16:51:43.439Z,11.90
2023-01-05T16:54:17.771Z,7.03
2023-01-05T16:56:50.261Z,10.60
2023-01-05T16:59:36.802Z,8.07
2023-01-05T17:02:07.514Z,10.43
2023-01-05T17:04:35.411Z,11.13
2023-01-05T17:07:04.621Z,11.63
2023-01-05T17:09:33.446Z,12.13
2023-01-05T17:12:01.234Z,11.57
2023-01-05T17:14:29.258Z,9.43
2023-01-05T17:16:59.955Z,12.50
2023-01-05T17:19:27.723Z,8.00
2023-01-05T17:21:56.810Z,11.27
2023-01-05T17:24:27.066Z,9.40
2023-01-05T17:26:54.893Z,13.27
2023-01-05T17:29:23.241Z,9.20
2023-01-05T17:31:51.880Z,9.80
2023-01-05T17:34:20.760Z,10.50
2023-01-05T17:36:49.747Z,8.30
2023-01-05T17:39:17.873Z,8.73
2023-01-05T17:41:47.440Z,8.53
2023-01-05T17:44:15.332Z,13.13
2023-01-05T17:46:44.176Z,9.07
2023-01-05T17:49:13.886Z,7.67
2023-01-05T17:51:41.548Z,10.23
2023-01-05T17:54:09.695Z,10.07
2023-01-05T17:56:37.379Z,5.80
2023-01-05T17:59:06.699Z,7.60
2023-01-05T18:01:34.806Z,10.20
2023-01-05T18:04:02.785Z,7.20
2023-01-05T18:06:30.572Z,11.90
2023-01-05T18:08:58.409Z,9.87
2023-01-05T18:11:26.136Z,9.60
2023-01-05T18:13:54.879Z,9.30
2023-01-05T18:16:24.987Z,6.27
2023-01-05T18:18:53.567Z,9.40
2023-01-05T18:21:21.196Z,6.43
2023-01-05T18:23:48.982Z,6.37
2023-01-05T18:26:16.515Z,8.60
2023-01-05T18:28:44.506Z,8.97
2023-01-05T18:31:12.589Z,7.90
2023-01-05T18:33:41.801Z,7.77
2023-01-05T18:36:10.818Z,7.87
2023-01-05T18:38:39.452Z,12.27
2023-01-05T18:41:07.153Z,10.50
2023-01-05T18:43:35.012Z,10.50
2023-01-05T18:46:03.080Z,13.23
2023-01-05T18:48:30.997Z,13.20
2023-01-05T18:51:00.050Z,9.20
2023-01-05T18:53:28.023Z,8.80
2023-01-05T18:55:56.113Z,14.80
2023-01-05T18:58:23.819Z,11.50
2023-01-05T19:00:51.497Z,8.77
2023-01-05T19:03:19.578Z,11.97
2023-01-05T19:05:47.532Z,12.67
2023-01-05T19:08:16.565Z,14.70
2023-01-05T19:10:44.361Z,11.80
2023-01-05T19:13:12.222Z,12.53
2023-01-05T19:15:39.957Z,11.23
2023-01-05T19:18:11.364Z,10.57
2023-01-05T19:20:39.245Z,15.30
2023-01-05T19:23:06.914Z,16.53
2023-01-05T19:25:36.236Z,14.63
2023-01-05T19:28:04.050Z,15.73
2023-01-05T19:30:32.109Z,11.80
2023-01-05T19:33:01.148Z,16.23
2023-01-05T19:35:30.180Z,11.00
2023-01-05T19:38:00.660Z,20.20
2023-01-05T19:40:28.886Z,22.90
2023-01-05T19:42:58.005Z,11.57
2023-01-05T19:45:25.743Z,11.70
2023-01-05T19:47:54.025Z,15.53
2023-01-05T19:50:21.852Z,11.90
2023-01-05T19:52:49.497Z,12.03
2023-01-05T19:55:18.662Z,13.07
2023-01-05T19:57:46.343Z,11.80
2023-01-05T20:00:16.607Z,15.43
2023-01-05T20:02:44.489Z,15.33
2023-01-05T20:05:13.956Z,22.90
2023-01-05T20:07:43.400Z,17.27
2023-01-05T20:10:12.612Z,13.40
2023-01-05T20:12:40.490Z,10.17
2023-01-05T20:15:08.406Z,16.57
2023-01-05T20:17:37.788Z,11.53
2023-01-05T20:20:05.599Z,14.43
2023-01-05T20:22:33.391Z,13.80
2023-01-05T20:25:02.103Z,10.80
2023-01-05T20:27:29.996Z,13.77
2023-01-05T20:29:57.670Z,12.57
2023-01-05T20:32:26.861Z,14.87
2023-01-05T20:34:57.461Z,11.10
2023-01-05T20:37:25.236Z,12.63
2023-01-05T20:39:56.058Z,12.70
2023-01-05T20:42:23.776Z,8.53
2023-01-05T20:44:51.844Z,6.00
2023-01-05T20:47:19.796Z,10.30
2023-01-05T20:49:47.522Z,10.37
2023-01-05T20:52:17.471Z,10.17
2023-01-05T20:54:45.954Z,10.80
2023-01-05T20:57:13.603Z,9.73
2023-01-05T20:59:41.531Z,7.03
2023-01-05T21:02:22.573Z,8.90
2023-01-05T21:04:51.906Z,13.30
2023-01-05T21:07:21.354Z,12.83
2023-01-05T21:09:49.876Z,11.00
2023-01-05T21:12:17.666Z,15.90
2023-01-05T21:14:46.380Z,8.10
2023-01-05T21:17:14.034Z,11.63
2023-01-05T21:19:41.743Z,12.43
2023-01-05T21:22:09.493Z,11.67
2023-01-05T21:24:38.552Z,9.83
2023-01-05T21:27:06.528Z,14.20
2023-01-05T21:29:34.580Z,13.03
2023-01-05T21:32:02.312Z,9.33
2023-01-05T21:34:30.210Z,18.30
2023-01-05T21:36:58.015Z,19.03
2023-01-05T21:39:28.523Z,12.03
2023-01-05T21:42:11.809Z,14.97
2023-01-05T21:44:40.293Z,10.33
2023-01-05T21:47:08.292Z,12.33
2023-01-05T21:49:36.255Z,13.77
2023-01-05T21:52:21.769Z,12.80
2023-01-05T21:55:07.236Z,8.40
2023-01-05T21:57:36.411Z,11.40
2023-01-05T22:00:04.527Z,11.37
2023-01-05T22:02:33.014Z,12.33
2023-01-05T22:05:00.661Z,13.37
2023-01-05T22:07:28.779Z,13.20
2023-01-05T22:09:56.601Z,6.67
2023-01-05T22:12:24.226Z,9.23
2023-01-05T22:14:53.207Z,10.97
2023-01-05T22:17:21.115Z,21.17
2023-01-05T22:19:48.730Z,12.50
2023-01-05T22:22:18.155Z,11.90
2023-01-05T22:24:46.255Z,11.97
2023-01-05T22:27:13.968Z,18.83
2023-01-05T22:29:41.727Z,23.13
2023-01-05T22:32:11.001Z,21.33
2023-01-05T22:34:43.695Z,18.40
2023-01-05T22:37:12.048Z,10.80
2023-01-05T22:39:39.678Z,11.47
2023-01-05T22:42:07.869Z,17.77
2023-01-05T22:44:35.751Z,13.27
2023-01-05T22:47:03.422Z,13.80
2023-01-05T22:49:32.779Z,12.80
2023-01-05T22:52:00.715Z,37.23
2023-01-05T22:54:28.419Z,27.83
2023-01-05T22:56:56.251Z,19.13
2023-01-05T22:59:24.343Z,23.57
2023-01-05T23:01:52.076Z,48.80
2023-01-05T23:04:19.708Z,31.50
2023-01-05T23:06:48.983Z,18.43
2023-01-05T23:09:17.190Z,33.47
2023-01-05T23:11:46.397Z,18.60
2023-01-05T23:14:15.027Z,22.00
2023-01-05T23:16:42.735Z,18.50
2023-01-05T23:19:11.533Z,21.73
2023-01-05T23:21:41.149Z,23.27
2023-01-05T23:24:10.963Z,20.40
2023-01-05T23:26:38.982Z,25.20
2023-01-05T23:29:06.829Z,41.73
2023-01-05T23:31:34.574Z,56.30
2023-01-05T23:34:02.241Z,19.70
2023-01-05T23:36:30.121Z,19.83
2023-01-05T23:38:57.821Z,28.80
2023-01-05T23:41:27.092Z,29.87
2023-01-05T23:43:55.604Z,24.27
2023-01-05T23:46:23.665Z,45.10
2023-01-05T23:48:51.940Z,28.53
2023-01-05T23:51:19.778Z,14.10
2023-01-05T23:53:48.199Z,28.33
2023-01-05T23:56:16.794Z,17.37
2023-01-05T23:58:46.383Z,15.27
